Time;durP1;ratioP1;P1;durP2;ratioP2;P2;SDS_P1;SDS_P2;PMS_P1;PMS_P2;Temp;Humidity;BMP_temperature;BMP_pressure;BME280_temperature;BME280_humidity;BME280_pressure;Samples;Min_cycle;Max_cycle;Signal;HPM_P1;HPM_P2
2023/08/24 00:00:49;;;;;;;;;;;;;;;21.43;79.83;95337.25;5114694;28;1157;-57
2023/08/24 00:03:16;;;;;;;;;;;;;;;21.34;80.48;95338.59;5114736;28;985;-57
2023/08/24 00:05:43;;;;;;;;;;;;;;;21.47;79.48;95327.63;5114426;28;1909;-57
2023/08/24 00:08:09;;;;;;;;;;;;;;;21.23;80.60;95326.59;5114702;28;973;-57
2023/08/24 00:10:35;;;;;;;;;;;;;;;21.01;81.52;95328.84;5114292;28;1048;-57
2023/08/24 00:13:02;;;;;;;;;;;;;;;20.83;82.66;95327.75;5096255;28;890;-57
2023/08/24 00:15:29;;;;;;;;;;;;;;;20.81;83.29;95335.28;5116251;27;2505;-57
2023/08/24 00:17:55;;;;;;;;;;;;;;;20.98;82.28;95327.41;5114460;28;974;-57
2023/08/24 00:20:22;;;;;;;;;;;;;;;21.13;81.43;95323.53;5124558;27;1182;-57
2023/08/24 00:22:48;;;;;;;;;;;;;;;21.12;81.80;95328.13;5134731;27;961;-56
2023/08/24 00:25:16;;;;;;;;;;;;;;;21.03;82.30;95326.75;5134448;27;1913;-57
2023/08/24 00:27:42;;;;;;;;;;;;;;;21.08;81.92;95324.19;5134809;27;971;-57
2023/08/24 00:30:08;;;;;;;;;;;;;;;20.95;83.24;95327.84;5133368;27;2908;-56
2023/08/24 00:32:34;;;;;;;;;;;;;;;20.90;83.66;95327.69;5134784;27;1010;-57
2023/08/24 00:35:01;;;;;;;;;;;;;;;20.83;83.41;95325.03;5134593;27;1031;-57
2023/08/24 00:37:28;;;;;;;;;;;;;;;20.66;84.36;95313.88;5134616;27;965;-57
2023/08/24 00:39:55;;;;;;;;;;;;;;;20.68;83.79;95319.09;5134232;27;971;-57
2023/08/24 00:42:22;;;;;;;;;;;;;;;20.83;83.35;95321.47;5134606;27;1042;-57
2023/08/24 00:44:51;;;;;;;;;;;;;;;20.75;83.81;95322.56;5133130;27;2512;-57
2023/08/24 00:47:17;;;;;;;;;;;;;;;20.73;84.27;95321.13;5134236;28;1048;-57
2023/08/24 00:49:43;;;;;;;;;;;;;;;20.73;84.32;95324.66;5133029;28;2918;-57
2023/08/24 00:52:10;;;;;;;;;;;;;;;20.64;84.79;95329.56;5134630;28;1051;-57
2023/08/24 00:54:36;;;;;;;;;;;;;;;20.79;83.95;95326.53;5134318;28;1020;-56
2023/08/24 00:57:03;;;;;;;;;;;;;;;20.83;83.07;95316.88;5134508;28;1026;-57
2023/08/24 00:59:29;;;;;;;;;;;;;;;20.59;84.37;95310.31;5134502;28;1059;-57
2023/08/24 01:01:55;;;;;;;;;;;;;;;20.31;85.05;95309.88;5134301;28;1055;-57
2023/08/24 01:04:22;;;;;;;;;;;;;;;20.23;86.02;95305.56;5134462;28;959;-57
2023/08/24 01:06:48;;;;;;;;;;;;;;;20.21;86.15;95302.22;5134354;28;1972;-57
2023/08/24 01:09:14;;;;;;;;;;;;;;;20.18;86.09;95308.91;5134115;28;1130;-57
2023/08/24 01:11:59;;;;;;;;;;;;;;;20.31;85.68;95308.00;5134370;28;960;-57
2023/08/24 01:14:43;;;;;;;;;;;;;;;20.59;84.30;95304.06;5134029;28;1023;-57
2023/08/24 01:17:12;;;;;;;;;;;;;;;20.60;83.89;95298.47;5134128;28;981;-57
2023/08/24 01:19:43;;;;;;;;;;;;;;;20.75;83.21;95295.38;5134237;28;1264;-57
2023/08/24 01:22:13;;;;;;;;;;;;;;;20.89;82.45;95303.44;5133984;28;1585;-57
2023/08/24 01:24:44;;;;;;;;;;;;;;;20.46;83.90;95291.41;5134213;28;1987;-57
2023/08/24 01:27:11;;;;;;;;;;;;;;;20.14;85.98;95288.69;5133957;28;1119;-57
2023/08/24 01:29:38;;;;;;;;;;;;;;;20.29;84.59;95299.25;5133957;28;1103;-57
2023/08/24 01:32:04;;;;;;;;;;;;;;;20.24;85.38;95302.63;5134401;28;1404;-57
2023/08/24 01:34:30;;;;;;;;;;;;;;;20.18;85.92;95305.38;5134194;28;976;-57
2023/08/24 01:36:56;;;;;;;;;;;;;;;20.21;85.72;95303.03;5134061;28;984;-57
2023/08/24 01:39:30;;;;;;;;;;;;;;;20.12;85.76;95300.81;5133761;28;1032;-57
2023/08/24 01:42:00;;;;;;;;;;;;;;;19.99;86.48;95294.38;5115964;28;1076;-57
2023/08/24 01:44:28;;;;;;;;;;;;;;;20.01;86.65;95297.72;5134266;28;1992;-57
2023/08/24 01:46:54;;;;;;;;;;;;;;;19.76;87.77;95294.09;5120985;28;2995;-57
2023/08/24 01:49:20;;;;;;;;;;;;;;;19.83;87.31;95287.59;5113525;28;1033;-57
2023/08/24 01:51:47;;;;;;;;;;;;;;;19.87;86.66;95286.09;5113404;28;1014;-56
2023/08/24 01:54:13;;;;;;;;;;;;;;;19.94;86.24;95285.22;5116897;28;1016;-57
2023/08/24 01:56:39;;;;;;;;;;;;;;;19.93;86.46;95289.00;5117185;28;1159;-57
2023/08/24 01:59:06;;;;;;;;;;;;;;;19.90;86.99;95293.00;5116826;28;1040;-57
2023/08/24 02:01:32;;;;;;;;;;;;;;;19.80;87.23;95289.91;5116972;28;1011;-57
2023/08/24 02:03:59;;;;;;;;;;;;;;;19.73;87.57;95305.34;5116950;28;1000;-57
2023/08/24 02:06:26;;;;;;;;;;;;;;;19.81;87.33;95303.25;5116737;28;1910;-57
2023/08/24 02:08:52;;;;;;;;;;;;;;;19.97;86.67;95301.09;5098726;28;1119;-57
2023/08/24 02:11:18;;;;;;;;;;;;;;;20.02;86.58;95304.00;5116557;28;1103;-57
2023/08/24 02:13:44;;;;;;;;;;;;;;;19.77;87.41;95312.00;5116558;28;1099;-58
2023/08/24 02:16:12;;;;;;;;;;;;;;;19.54;88.85;95313.34;5116766;28;952;-57
2023/08/24 02:18:38;;;;;;;;;;;;;;;19.70;87.76;95315.56;5116791;28;1052;-57
2023/08/24 02:21:08;;;;;;;;;;;;;;;19.62;88.04;95314.97;5132752;27;1169;-57
2023/08/24 02:23:34;;;;;;;;;;;;;;;19.42;88.43;95304.16;5136838;27;1039;-57
2023/08/24 02:26:00;;;;;;;;;;;;;;;19.41;89.13;95307.94;5136977;27;1993;-57
2023/08/24 02:28:26;;;;;;;;;;;;;;;19.36;89.38;95303.16;5136570;27;1107;-58
2023/08/24 02:30:52;;;;;;;;;;;;;;;19.25;89.81;95304.63;5136776;27;1092;-57
2023/08/24 02:33:18;;;;;;;;;;;;;;;19.34;89.33;95302.53;5136978;27;1037;-56
2023/08/24 02:35:46;;;;;;;;;;;;;;;19.63;87.84;95306.59;5136887;27;1036;-56
2023/08/24 02:38:12;;;;;;;;;;;;;;;19.70;87.08;95301.16;5136548;27;1048;-56
2023/08/24 02:40:38;;;;;;;;;;;;;;;19.69;87.68;95307.63;5136544;27;1087;-58
2023/08/24 02:43:04;;;;;;;;;;;;;;;19.56;89.40;95316.66;5136468;27;1102;-58
2023/08/24 02:45:30;;;;;;;;;;;;;;;19.52;88.47;95318.16;5136160;27;1918;-58
2023/08/24 02:47:56;;;;;;;;;;;;;;;19.74;87.57;95334.16;5136662;27;977;-57
2023/08/24 02:50:22;;;;;;;;;;;;;;;19.88;86.64;95330.34;5136564;27;977;-57
2023/08/24 02:52:48;;;;;;;;;;;;;;;19.86;86.57;95333.28;5136440;27;1040;-58
2023/08/24 02:55:14;;;;;;;;;;;;;;;19.98;86.30;95325.31;5132041;27;2544;-57
2023/08/24 02:57:40;;;;;;;;;;;;;;;19.85;86.60;95337.03;5115602;28;1070;-57
2023/08/24 03:00:06;;;;;;;;;;;;;;;19.63;87.72;95339.16;5115840;28;1067;-57
2023/08/24 03:02:33;;;;;;;;;;;;;;;19.56;88.03;95337.50;5115809;28;1025;-57
2023/08/24 03:04:59;;;;;;;;;;;;;;;19.66;87.69;95337.91;5120763;27;2548;-57
2023/08/24 03:07:25;;;;;;;;;;;;;;;19.66;87.59;95333.31;5134965;27;2498;-57
2023/08/24 03:09:51;;;;;;;;;;;;;;;19.60;87.83;95336.06;5136311;27;1058;-57
2023/08/24 03:12:17;;;;;;;;;;;;;;;19.67;87.51;95331.41;5136146;27;1040;-57
2023/08/24 03:14:43;;;;;;;;;;;;;;;19.41;87.72;95329.63;5136147;27;1024;-57
2023/08/24 03:17:09;;;;;;;;;;;;;;;19.23;88.71;95338.41;5136227;27;998;-57
2023/08/24 03:19:35;;;;;;;;;;;;;;;19.35;88.38;95342.16;5132291;27;1305;-57
2023/08/24 03:22:01;;;;;;;;;;;;;;;19.47;87.70;95337.75;5115238;28;1878;-56
2023/08/24 03:24:26;;;;;;;;;;;;;;;19.65;86.50;95330.81;5097059;28;1028;-56
2023/08/24 03:26:52;;;;;;;;;;;;;;;19.42;88.21;95332.13;5115056;28;1891;-57
2023/08/24 03:29:18;;;;;;;;;;;;;;;19.44;88.26;95335.44;5115018;28;1049;-57
2023/08/24 03:31:44;;;;;;;;;;;;;;;19.61;87.32;95335.00;5115289;28;946;-58
2023/08/24 03:34:10;;;;;;;;;;;;;;;19.73;87.16;95324.34;5115055;28;983;-58
2023/08/24 03:36:37;;;;;;;;;;;;;;;19.61;87.40;95327.69;5115125;28;1057;-58
2023/08/24 03:39:04;;;;;;;;;;;;;;;19.32;88.36;95323.59;5115131;28;1044;-58
2023/08/24 03:41:30;;;;;;;;;;;;;;;19.35;89.03;95335.88;5114621;28;1430;-58
2023/08/24 03:43:55;;;;;;;;;;;;;;;19.37;88.69;95333.78;5114742;28;1095;-58
2023/08/24 03:46:21;;;;;;;;;;;;;;;19.34;88.64;95345.06;5103819;27;2819;-58
2023/08/24 03:48:47;;;;;;;;;;;;;;;19.38;88.72;95351.75;5094305;28;1048;-58
2023/08/24 03:51:13;;;;;;;;;;;;;;;19.41;88.73;95352.16;5094065;28;2001;-58
2023/08/24 03:53:39;;;;;;;;;;;;;;;19.52;87.93;95361.53;5094146;28;1096;-58
2023/08/24 03:56:05;;;;;;;;;;;;;;;19.56;87.75;95365.47;5094193;28;961;-57
2023/08/24 03:58:31;;;;;;;;;;;;;;;19.56;87.92;95368.19;5094021;28;1045;-58
2023/08/24 04:00:57;;;;;;;;;;;;;;;19.42;88.03;95380.09;5094338;28;1069;-58
2023/08/24 04:03:23;;;;;;;;;;;;;;;19.27;88.42;95377.59;5094264;28;976;-57
2023/08/24 04:05:49;;;;;;;;;;;;;;;19.17;89.38;95383.44;5094289;28;1983;-57
2023/08/24 04:08:16;;;;;;;;;;;;;;;19.00;90.31;95382.19;5094326;28;979;-57
2023/08/24 04:10:42;;;;;;;;;;;;;;;18.88;90.20;95382.00;5094337;28;1316;-57
2023/08/24 04:13:08;;;;;;;;;;;;;;;18.99;90.44;95380.53;5093913;28;1044;-56
2023/08/24 04:15:34;;;;;;;;;;;;;;;19.04;90.38;95384.28;5075454;28;1001;-57
2023/08/24 04:18:00;;;;;;;;;;;;;;;19.16;89.83;95376.38;5093819;28;1108;-58
2023/08/24 04:20:25;;;;;;;;;;;;;;;19.19;90.21;95380.53;5104690;28;1213;-58
2023/08/24 04:22:51;;;;;;;;;;;;;;;19.50;88.20;95380.72;5114514;28;984;-57
2023/08/24 04:25:17;;;;;;;;;;;;;;;19.96;85.14;95373.53;5114027;28;2000;-57
2023/08/24 04:27:43;;;;;;;;;;;;;;;20.07;85.78;95377.44;5114352;28;1004;-57
2023/08/24 04:30:11;;;;;;;;;;;;;;;19.95;87.06;95373.75;5113988;28;1045;-58
2023/08/24 04:32:37;;;;;;;;;;;;;;;19.81;87.72;95383.81;5114293;28;1043;-58
2023/08/24 04:35:04;;;;;;;;;;;;;;;19.97;87.30;95388.75;5114296;28;1024;-58
2023/08/24 04:37:30;;;;;;;;;;;;;;;20.35;85.66;95404.25;5114123;28;969;-58
2023/08/24 04:39:56;;;;;;;;;;;;;;;20.77;83.65;95399.28;5113892;28;1036;-58
2023/08/24 04:42:22;;;;;;;;;;;;;;;21.15;81.44;95403.81;5113718;28;1048;-59
2023/08/24 04:44:48;;;;;;;;;;;;;;;21.49;80.19;95412.53;5113982;28;1956;-58
2023/08/24 04:47:14;;;;;;;;;;;;;;;21.91;78.01;95410.06;5132807;27;1219;-57
2023/08/24 04:49:40;;;;;;;;;;;;;;;22.07;78.27;95403.16;5134673;28;959;-57
2023/08/24 04:52:06;;;;;;;;;;;;;;;21.91;78.90;95409.22;5134747;28;969;-57
2023/08/24 04:54:32;;;;;;;;;;;;;;;21.67;80.71;95413.66;5134478;28;1233;-57
2023/08/24 04:56:58;;;;;;;;;;;;;;;21.53;80.51;95413.78;5116132;28;968;-57
2023/08/24 04:59:24;;;;;;;;;;;;;;;21.33;82.99;95413.91;5116172;28;1583;-57
2023/08/24 05:01:50;;;;;;;;;;;;;;;21.25;84.88;95411.47;5134533;28;1052;-58
2023/08/24 05:04:16;;;;;;;;;;;;;;;21.29;84.83;95407.25;5134074;28;1028;-58
2023/08/24 05:06:42;;;;;;;;;;;;;;;21.49;84.14;95417.97;5134117;28;1983;-57
2023/08/24 05:09:08;;;;;;;;;;;;;;;21.45;83.46;95412.16;5134418;28;991;-57
2023/08/24 05:11:34;;;;;;;;;;;;;;;21.55;83.64;95411.66;5134284;28;995;-57
2023/08/24 05:14:00;;;;;;;;;;;;;;;21.75;83.64;95421.53;5134438;28;1036;-56
2023/08/24 05:16:27;;;;;;;;;;;;;;;21.85;82.15;95424.56;5134095;28;1043;-58
2023/08/24 05:18:53;;;;;;;;;;;;;;;22.08;78.85;95423.88;5133067;28;2791;-57
2023/08/24 05:21:19;;;;;;;;;;;;;;;22.28;78.16;95426.41;5134045;28;1141;-57
2023/08/24 05:23:45;;;;;;;;;;;;;;;22.40;76.55;95424.63;5134110;28;2004;-57
2023/08/24 05:26:11;;;;;;;;;;;;;;;22.60;77.82;95424.34;5115865;27;1990;-57
2023/08/24 05:28:37;;;;;;;;;;;;;;;22.82;75.80;95432.00;5137151;27;1004;-56
2023/08/24 05:31:03;;;;;;;;;;;;;;;23.03;77.65;95428.00;5138251;27;1047;-57
2023/08/24 05:33:30;;;;;;;;;;;;;;;23.13;78.61;95427.41;5138064;27;993;-56
2023/08/24 05:35:57;;;;;;;;;;;;;;;23.19;77.55;95423.75;5138181;27;992;-55
2023/08/24 05:38:23;;;;;;;;;;;;;;;23.33;72.37;95416.19;5137850;27;995;-56
2023/08/24 05:40:49;;;;;;;;;;;;;;;23.49;70.68;95410.03;5137761;27;1040;-56
2023/08/24 05:43:16;;;;;;;;;;;;;;;23.61;70.76;95417.41;5137694;27;1044;-55
2023/08/24 05:45:44;;;;;;;;;;;;;;;23.78;72.35;95421.09;5137662;27;1909;-57
2023/08/24 05:48:11;;;;;;;;;;;;;;;23.66;71.68;95418.38;5137544;27;1032;-56
2023/08/24 05:50:37;;;;;;;;;;;;;;;23.65;73.04;95413.13;5137525;27;1092;-56
2023/08/24 05:53:03;;;;;;;;;;;;;;;23.72;74.18;95413.84;5137556;27;1055;-57
2023/08/24 05:55:29;;;;;;;;;;;;;;;23.74;74.62;95422.63;5137446;27;1056;-57
2023/08/24 05:57:55;;;;;;;;;;;;;;;23.80;75.67;95418.16;5137505;27;1000;-57
2023/08/24 06:00:22;;;;;;;;;;;;;;;23.84;77.07;95413.88;5137592;27;1301;-57
2023/08/24 06:02:48;;;;;;;;;;;;;;;23.86;76.85;95412.56;5137368;27;1896;-56
2023/08/24 06:05:14;;;;;;;;;;;;;;;23.73;76.72;95415.50;5137189;27;1937;-57
2023/08/24 06:07:40;;;;;;;;;;;;;;;23.86;76.68;95419.94;5137233;27;1107;-57
2023/08/24 06:10:06;;;;;;;;;;;;;;;24.08;72.36;95420.97;5137199;27;1031;-56
2023/08/24 06:12:32;;;;;;;;;;;;;;;24.32;69.82;95412.72;5137193;27;1024;-56
2023/08/24 06:14:58;;;;;;;;;;;;;;;24.16;71.82;95427.97;5137416;27;1186;-56
2023/08/24 06:17:24;;;;;;;;;;;;;;;24.13;71.20;95425.72;5137010;27;1091;-56
2023/08/24 06:19:50;;;;;;;;;;;;;;;24.11;72.62;95422.41;5130974;27;1141;-56
2023/08/24 06:22:16;;;;;;;;;;;;;;;24.26;70.82;95421.91;5116350;28;978;-56
2023/08/24 06:24:42;;;;;;;;;;;;;;;24.49;71.01;95410.06;5116604;28;1910;-55
2023/08/24 06:27:08;;;;;;;;;;;;;;;24.67;69.52;95420.06;5116683;28;1204;-58
2023/08/24 06:29:34;;;;;;;;;;;;;;;24.92;69.71;95411.50;5116549;28;1041;-57
2023/08/24 06:32:00;;;;;;;;;;;;;;;25.03;67.59;95418.81;5116307;28;1048;-57
2023/08/24 06:34:26;;;;;;;;;;;;;;;25.04;67.42;95422.38;5116119;28;1041;-57
2023/08/24 06:36:52;;;;;;;;;;;;;;;24.98;69.42;95415.97;5116133;28;1064;-56
2023/08/24 06:39:19;;;;;;;;;;;;;;;24.98;67.86;95413.25;5115994;28;996;-57
2023/08/24 06:41:45;;;;;;;;;;;;;;;25.09;67.26;95404.16;5116370;28;965;-57
2023/08/24 06:44:11;;;;;;;;;;;;;;;25.31;68.50;95414.44;5116193;28;1080;-56
2023/08/24 06:46:37;;;;;;;;;;;;;;;25.37;66.89;95412.59;5115922;28;1905;-56
2023/08/24 06:49:03;;;;;;;;;;;;;;;25.58;66.69;95413.78;5116087;28;1114;-57
2023/08/24 06:51:29;;;;;;;;;;;;;;;25.78;64.76;95419.56;5115773;28;1048;-57
2023/08/24 06:53:55;;;;;;;;;;;;;;;25.59;66.79;95409.94;5116087;28;1060;-57
2023/08/24 06:56:21;;;;;;;;;;;;;;;25.64;66.43;95408.13;5121119;27;2836;-57
2023/08/24 06:58:47;;;;;;;;;;;;;;;25.68;65.16;95405.72;5136229;27;1243;-57
2023/08/24 07:01:14;;;;;;;;;;;;;;;25.79;64.55;95410.25;5136453;27;1056;-57
2023/08/24 07:03:40;;;;;;;;;;;;;;;25.96;63.83;95410.28;5136301;27;968;-57
2023/08/24 07:06:11;;;;;;;;;;;;;;;26.15;63.69;95404.50;5136058;27;1914;-57
2023/08/24 07:08:38;;;;;;;;;;;;;;;26.44;64.35;95403.22;5116145;27;1064;-57
2023/08/24 07:11:04;;;;;;;;;;;;;;;26.58;63.67;95406.44;5120895;27;2865;-57
2023/08/24 07:13:30;;;;;;;;;;;;;;;26.73;63.46;95404.97;5136051;27;1015;-56
2023/08/24 07:15:56;;;;;;;;;;;;;;;26.87;62.04;95403.50;5135934;27;1562;-57
2023/08/24 07:18:22;;;;;;;;;;;;;;;27.15;63.13;95399.69;5135962;27;1095;-57
2023/08/24 07:20:48;;;;;;;;;;;;;;;27.34;62.25;95411.16;5121613;27;1212;-56
2023/08/24 07:23:14;;;;;;;;;;;;;;;27.56;60.91;95407.47;5115118;28;1008;-56
2023/08/24 07:25:41;;;;;;;;;;;;;;;27.71;60.76;95401.28;5097295;28;1914;-57
2023/08/24 07:28:08;;;;;;;;;;;;;;;27.73;60.37;95407.34;5115305;28;993;-57
2023/08/24 07:30:35;;;;;;;;;;;;;;;27.88;56.98;95409.38;5115353;28;1016;-57
2023/08/24 07:33:02;;;;;;;;;;;;;;;27.86;60.00;95398.63;5114973;28;1056;-57
2023/08/24 07:35:29;;;;;;;;;;;;;;;27.65;59.63;95395.72;5115232;28;1035;-56
2023/08/24 07:37:56;;;;;;;;;;;;;;;27.90;57.78;95396.22;5114911;28;1095;-56
2023/08/24 07:40:22;;;;;;;;;;;;;;;28.22;56.21;95394.22;5115064;28;1052;-57
2023/08/24 07:42:50;;;;;;;;;;;;;;;28.45;56.81;95392.13;5115136;28;1093;-57
2023/08/24 07:45:16;;;;;;;;;;;;;;;28.62;56.37;95392.78;5114443;28;1992;-57
2023/08/24 07:47:43;;;;;;;;;;;;;;;28.78;56.47;95395.59;5115161;28;984;-57
2023/08/24 07:50:10;;;;;;;;;;;;;;;28.81;54.70;95390.34;5114076;28;983;-57
2023/08/24 07:52:36;;;;;;;;;;;;;;;28.76;56.76;95384.00;5114654;28;1536;-57
2023/08/24 07:55:03;;;;;;;;;;;;;;;29.07;56.16;95384.94;5114864;28;1036;-57
2023/08/24 07:57:31;;;;;;;;;;;;;;;29.18;54.31;95388.56;5114538;28;1870;-57
2023/08/24 07:59:57;;;;;;;;;;;;;;;29.44;54.16;95374.81;5114773;28;1033;-57
2023/08/24 08:02:23;;;;;;;;;;;;;;;29.48;53.01;95375.91;5114723;28;937;-56
2023/08/24 08:04:49;;;;;;;;;;;;;;;29.68;55.16;95370.38;5114354;28;1960;-57
2023/08/24 08:07:15;;;;;;;;;;;;;;;30.05;52.63;95371.19;5114321;28;962;-57
2023/08/24 08:09:42;;;;;;;;;;;;;;;30.19;50.91;95368.69;5114958;28;1048;-57
2023/08/24 08:12:08;;;;;;;;;;;;;;;30.31;51.48;95353.47;5114512;28;1036;-57
2023/08/24 08:14:34;;;;;;;;;;;;;;;30.41;50.64;95365.59;5114528;28;976;-57
2023/08/24 08:17:00;;;;;;;;;;;;;;;30.37;52.06;95365.31;5114361;28;968;-56
2023/08/24 08:19:27;;;;;;;;;;;;;;;30.68;50.70;95360.53;5116619;27;1213;-57
2023/08/24 08:21:53;;;;;;;;;;;;;;;30.90;50.02;95365.66;5134998;27;1182;-57
2023/08/24 08:24:19;;;;;;;;;;;;;;;31.04;49.08;95362.28;5116425;27;1103;-57
2023/08/24 08:26:45;;;;;;;;;;;;;;;31.37;49.71;95349.63;5134527;27;1909;-57
2023/08/24 08:29:11;;;;;;;;;;;;;;;31.19;49.21;95348.38;5134870;27;1032;-57
2023/08/24 08:31:37;;;;;;;;;;;;;;;30.80;50.69;95349.13;5134893;27;1184;-57
2023/08/24 08:34:06;;;;;;;;;;;;;;;30.58;49.56;95351.47;5134811;27;1036;-56
2023/08/24 08:36:32;;;;;;;;;;;;;;;30.70;53.93;95349.19;5133328;27;2462;-57
2023/08/24 08:38:58;;;;;;;;;;;;;;;30.79;52.65;95346.66;5134508;27;1090;-57
2023/08/24 08:41:27;;;;;;;;;;;;;;;30.48;53.94;95342.13;5134632;27;973;-58
2023/08/24 08:43:53;;;;;;;;;;;;;;;30.34;53.44;95347.41;5134609;27;972;-57
2023/08/24 08:46:19;;;;;;;;;;;;;;;30.27;54.65;95340.53;5112552;28;1910;-57
2023/08/24 08:48:46;;;;;;;;;;;;;;;30.28;54.73;95342.16;5113950;28;953;-58
2023/08/24 08:51:13;;;;;;;;;;;;;;;30.20;54.73;95349.09;5113667;28;969;-58
2023/08/24 08:53:39;;;;;;;;;;;;;;;30.16;55.48;95345.25;5114088;28;1007;-58
2023/08/24 08:56:06;;;;;;;;;;;;;;;30.11;53.70;95342.53;5113989;28;1031;-58
2023/08/24 08:58:35;;;;;;;;;;;;;;;29.98;54.33;95344.75;5113681;28;1048;-58
2023/08/24 09:01:05;;;;;;;;;;;;;;;30.00;52.81;95340.91;5114033;28;963;-58
2023/08/24 09:03:32;;;;;;;;;;;;;;;30.35;53.35;95340.81;5117925;28;1020;-58
2023/08/24 09:05:58;;;;;;;;;;;;;;;30.82;53.50;95327.59;5118157;28;1929;-58
2023/08/24 09:08:27;;;;;;;;;;;;;;;31.03;52.73;95321.97;5116602;28;2852;-58
2023/08/24 09:10:54;;;;;;;;;;;;;;;31.41;48.74;95333.28;5118065;28;1139;-59
2023/08/24 09:13:21;;;;;;;;;;;;;;;31.52;48.30;95327.41;5116929;28;2532;-59
2023/08/24 09:15:46;;;;;;;;;;;;;;;31.71;49.68;95318.41;5097447;28;972;-59
2023/08/24 09:18:12;;;;;;;;;;;;;;;31.84;48.42;95314.13;5097240;28;1025;-59
2023/08/24 09:20:38;;;;;;;;;;;;;;;31.67;45.93;95318.16;5110210;28;1188;-58
2023/08/24 09:23:04;;;;;;;;;;;;;;;31.74;46.62;95311.47;5117909;28;1003;-59
2023/08/24 09:25:30;;;;;;;;;;;;;;;31.75;46.43;95304.84;5117685;28;1913;-58
2023/08/24 09:27:57;;;;;;;;;;;;;;;31.79;44.76;95308.66;5117649;28;1048;-59
2023/08/24 09:30:28;;;;;;;;;;;;;;;31.89;47.95;95303.00;5117422;28;1048;-59
2023/08/24 09:32:54;;;;;;;;;;;;;;;31.92;44.02;95302.44;5117833;28;1027;-59
2023/08/24 09:35:20;;;;;;;;;;;;;;;32.02;46.17;95301.53;5116103;28;2475;-59
2023/08/24 09:37:49;;;;;;;;;;;;;;;32.09;47.12;95302.81;5117475;28;965;-60
2023/08/24 09:40:15;;;;;;;;;;;;;;;32.14;43.66;95306.63;5117396;28;980;-59
2023/08/24 09:42:41;;;;;;;;;;;;;;;32.16;45.61;95299.72;5117250;27;1032;-59
2023/08/24 09:45:10;;;;;;;;;;;;;;;32.09;46.45;95302.81;5118217;27;1914;-59
2023/08/24 09:47:37;;;;;;;;;;;;;;;32.26;45.13;95296.81;5137615;27;989;-59
2023/08/24 09:50:03;;;;;;;;;;;;;;;32.27;46.53;95287.41;5137791;27;960;-59
2023/08/24 09:52:32;;;;;;;;;;;;;;;32.34;45.93;95291.75;5137696;27;963;-59
2023/08/24 09:55:02;;;;;;;;;;;;;;;32.35;43.10;95287.88;5137454;27;1138;-58
2023/08/24 09:57:28;;;;;;;;;;;;;;;32.60;43.91;95281.19;5136171;27;2997;-59
2023/08/24 09:59:55;;;;;;;;;;;;;;;32.74;44.11;95272.97;5137666;27;1075;-59
2023/08/24 10:02:23;;;;;;;;;;;;;;;32.79;44.35;95264.59;5137525;27;1040;-59
2023/08/24 10:04:50;;;;;;;;;;;;;;;32.88;43.95;95265.56;5137161;27;1910;-58
2023/08/24 10:07:20;;;;;;;;;;;;;;;32.75;43.73;95258.84;5137319;27;1055;-59
2023/08/24 10:09:55;;;;;;;;;;;;;;;32.56;45.64;95246.91;5137507;27;976;-59
2023/08/24 10:12:24;;;;;;;;;;;;;;;32.41;43.76;95251.53;5137173;27;1087;-59
2023/08/24 10:14:56;;;;;;;;;;;;;;;32.57;42.60;95243.03;5136286;27;1059;-59
2023/08/24 10:17:23;;;;;;;;;;;;;;;32.67;42.05;95248.44;5137258;27;1000;-58
2023/08/24 10:19:51;;;;;;;;;;;;;;;32.88;41.47;95246.19;5137132;27;1201;-58
2023/08/24 10:22:18;;;;;;;;;;;;;;;33.08;41.69;95242.25;5136917;27;1036;-58
2023/08/24 10:24:46;;;;;;;;;;;;;;;33.25;41.08;95239.78;5137197;27;1047;-58
2023/08/24 10:27:13;;;;;;;;;;;;;;;33.21;41.19;95232.38;5118771;27;1024;-57
2023/08/24 10:29:39;;;;;;;;;;;;;;;33.19;40.33;95234.63;5137131;27;1043;-57
2023/08/24 10:32:06;;;;;;;;;;;;;;;33.10;42.46;95231.69;5137127;27;1036;-56
2023/08/24 10:34:32;;;;;;;;;;;;;;;32.97;39.73;95240.78;5137057;27;1036;-57
2023/08/24 10:37:07;;;;;;;;;;;;;;;32.93;40.57;95229.47;5136730;27;1052;-58
2023/08/24 10:39:35;;;;;;;;;;;;;;;32.79;38.76;95232.19;5136544;27;1095;-58
2023/08/24 10:42:01;;;;;;;;;;;;;;;32.79;39.00;95232.19;5136774;27;1040;-58
2023/08/24 10:44:37;;;;;;;;;;;;;;;32.73;40.42;95222.31;5136735;27;979;-59
2023/08/24 10:47:16;;;;;;;;;;;;;;;32.70;39.38;95225.69;5136331;27;1963;-58
2023/08/24 10:49:42;;;;;;;;;;;;;;;32.77;40.35;95217.00;5136613;27;1050;-58
2023/08/24 10:52:19;;;;;;;;;;;;;;;32.96;39.57;95215.03;5136078;27;2614;-58
2023/08/24 10:54:48;;;;;;;;;;;;;;;33.00;41.35;95204.19;5116187;27;1006;-58
2023/08/24 10:57:19;;;;;;;;;;;;;;;32.95;41.74;95191.22;5115991;28;988;-58
2023/08/24 10:59:45;;;;;;;;;;;;;;;33.05;39.24;95196.63;5131037;27;2490;-58
2023/08/24 11:02:18;;;;;;;;;;;;;;;33.14;37.95;95198.72;5136213;27;972;-58
2023/08/24 11:05:03;;;;;;;;;;;;;;;33.13;37.88;95197.09;5136239;27;1023;-58
2023/08/24 11:07:29;;;;;;;;;;;;;;;33.00;40.45;95182.03;5136342;27;1001;-58
2023/08/24 11:09:55;;;;;;;;;;;;;;;32.88;40.14;95185.28;5136082;27;1103;-58
2023/08/24 11:12:21;;;;;;;;;;;;;;;32.91;39.53;95179.13;5136167;27;1022;-58
2023/08/24 11:15:08;;;;;;;;;;;;;;;33.04;38.05;95189.41;5136295;27;965;-58
2023/08/24 11:17:35;;;;;;;;;;;;;;;33.02;37.70;95197.22;5118052;27;2517;-58
2023/08/24 11:20:01;;;;;;;;;;;;;;;33.10;39.48;95192.91;5115044;27;2481;-58
2023/08/24 11:22:27;;;;;;;;;;;;;;;33.18;37.92;95199.75;5136068;27;965;-58
2023/08/24 11:24:53;;;;;;;;;;;;;;;33.30;38.42;95191.78;5134613;27;1910;-58
2023/08/24 11:27:20;;;;;;;;;;;;;;;33.37;39.11;95178.34;5135678;27;993;-58
2023/08/24 11:29:46;;;;;;;;;;;;;;;33.58;38.39;95167.69;5135696;27;1028;-58
2023/08/24 11:32:13;;;;;;;;;;;;;;;33.53;37.86;95170.56;5117552;27;969;-57
2023/08/24 11:34:42;;;;;;;;;;;;;;;33.40;36.90;95179.69;5135828;27;1227;-57
2023/08/24 11:37:18;;;;;;;;;;;;;;;33.41;38.55;95173.03;5135887;27;951;-57
2023/08/24 11:39:45;;;;;;;;;;;;;;;33.42;36.75;95175.47;5135815;27;980;-58
2023/08/24 11:42:11;;;;;;;;;;;;;;;33.47;36.01;95180.13;5135332;27;965;-59
2023/08/24 11:44:47;;;;;;;;;;;;;;;33.47;35.89;95182.88;5117471;27;996;-58
2023/08/24 11:47:13;;;;;;;;;;;;;;;33.49;34.22;95179.81;5135104;27;1979;-58
2023/08/24 11:49:40;;;;;;;;;;;;;;;33.60;35.14;95176.53;5135469;27;961;-57
2023/08/24 11:52:08;;;;;;;;;;;;;;;33.61;35.13;95188.44;5134711;27;2820;-57
2023/08/24 11:54:38;;;;;;;;;;;;;;;33.78;35.94;95180.34;5134792;27;2844;-58
2023/08/24 11:57:08;;;;;;;;;;;;;;;33.83;36.27;95187.75;5133191;27;2526;-58
2023/08/24 11:59:38;;;;;;;;;;;;;;;33.13;35.63;95191.53;5134609;27;2958;-58
2023/08/24 12:02:04;;;;;;;;;;;;;;;32.55;37.65;95185.19;5135030;27;1021;-57
2023/08/24 12:04:42;;;;;;;;;;;;;;;32.04;37.11;95170.16;5135065;27;1056;-58
2023/08/24 12:07:11;;;;;;;;;;;;;;;31.75;37.80;95177.69;5134823;27;1913;-57
2023/08/24 12:09:38;;;;;;;;;;;;;;;31.61;37.89;95170.09;5134877;27;1011;-58
2023/08/24 12:12:04;;;;;;;;;;;;;;;31.45;37.34;95166.66;5133450;27;2728;-57
2023/08/24 12:14:40;;;;;;;;;;;;;;;31.23;36.05;95188.47;5134742;27;1496;-57
2023/08/24 12:17:07;;;;;;;;;;;;;;;31.10;38.53;95195.47;5135088;27;1122;-57
2023/08/24 12:19:33;;;;;;;;;;;;;;;30.85;38.01;95208.34;5131316;27;1149;-57
2023/08/24 12:21:59;;;;;;;;;;;;;;;30.53;40.16;95233.69;5114222;28;1095;-58
2023/08/24 12:24:25;;;;;;;;;;;;;;;29.76;42.97;95248.59;5114019;28;1036;-57
2023/08/24 12:26:58;;;;;;;;;;;;;;;29.02;46.34;95245.34;5113996;28;1913;-57
2023/08/24 12:29:24;;;;;;;;;;;;;;;28.36;49.96;95251.59;5114344;28;1242;-57
2023/08/24 12:31:50;;;;;;;;;;;;;;;27.98;51.14;95241.84;5114072;28;1040;-57
2023/08/24 12:34:16;;;;;;;;;;;;;;;27.45;53.83;95252.78;5114171;28;961;-57
2023/08/24 12:36:43;;;;;;;;;;;;;;;27.23;54.91;95269.38;5113633;28;1009;-57
2023/08/24 12:39:12;;;;;;;;;;;;;;;27.06;56.24;95292.28;5124863;27;2497;-57
2023/08/24 12:41:38;;;;;;;;;;;;;;;26.97;57.32;95328.72;5134379;27;1083;-57
2023/08/24 12:44:05;;;;;;;;;;;;;;;26.91;57.89;95343.47;5134298;27;1126;-58
2023/08/24 12:46:31;;;;;;;;;;;;;;;26.58;58.82;95350.75;5115967;28;1992;-57
2023/08/24 12:48:59;;;;;;;;;;;;;;;26.43;60.98;95378.84;5134464;27;1067;-57
2023/08/24 12:51:25;;;;;;;;;;;;;;;26.34;60.81;95402.31;5134221;28;953;-57
2023/08/24 12:53:51;;;;;;;;;;;;;;;26.35;61.28;95413.00;5134317;28;1145;-57
2023/08/24 12:56:17;;;;;;;;;;;;;;;26.15;62.09;95413.56;5134552;28;995;-58
2023/08/24 12:58:43;;;;;;;;;;;;;;;25.73;65.06;95394.84;5133913;28;2861;-57